Time;durP1;ratioP1;P1;durP2;ratioP2;P2;SDS_P1;SDS_P2;PMS_P1;PMS_P2;Temp;Humidity;BMP_temperature;BMP_pressure;BME280_temperature;BME280_humidity;BME280_pressure;Samples;Min_cycle;Max_cycle;Signal;HPM_P1;HPM_P2
2021/12/04 00:00:04;;;;;;;9.30;7.07;;;;;;;2.48;92.96;99982.66;5012677;28;20034;-78
2021/12/04 00:02:32;;;;;;;8.30;6.65;;;;;;;2.47;93.26;99974.03;4984354;28;20057;-76
2021/12/04 00:04:59;;;;;;;11.88;7.78;;;;;;;2.47;93.45;99965.41;4977471;28;20096;-75
2021/12/04 00:07:29;;;;;;;6.88;6.25;;;;;;;2.47;92.94;99961.13;4990004;28;20088;-76
2021/12/04 00:10:01;;;;;;;10.35;7.90;;;;;;;2.42;93.74;99957.63;4996850;28;20038;-77
2021/12/04 00:12:27;;;;;;;6.90;6.20;;;;;;;2.42;93.98;99953.31;5007355;28;20041;-77
2021/12/04 00:14:53;;;;;;;11.15;8.48;;;;;;;2.42;93.98;99948.13;5006546;28;20041;-76
2021/12/04 00:17:19;;;;;;;8.93;7.60;;;;;;;2.41;93.82;99935.19;5007268;28;20121;-76
2021/12/04 00:19:48;;;;;;;7.38;6.43;;;;;;;2.42;93.61;99929.19;5008439;28;20133;-78
2021/12/04 00:22:16;;;;;;;10.85;8.23;;;;;;;2.41;94.09;99933.50;4985643;28;20052;-77
2021/12/04 00:24:42;;;;;;;9.60;8.55;;;;;;;2.40;93.33;99921.41;4994019;28;20052;-80
2021/12/04 00:27:09;;;;;;;12.57;6.78;;;;;;;2.41;93.75;99915.41;4989603;28;20034;-76
2021/12/04 00:29:35;;;;;;;11.80;6.95;;;;;;;2.43;93.74;99924.00;5001716;28;20041;-78
2021/12/04 00:32:11;;;;;;;9.30;6.70;;;;;;;2.45;93.34;99924.03;4989837;28;20124;-78
2021/12/04 00:34:42;;;;;;;7.93;6.72;;;;;;;2.43;93.71;99923.16;5002903;28;20490;-77
2021/12/04 00:50:43;;;;;;;9.30;6.25;;;;;;;2.52;92.92;99912.00;4983996;28;20077;-78
2021/12/04 00:53:08;;;;;;;9.32;6.57;;;;;;;2.53;93.06;99908.53;4974182;28;20058;-76
2021/12/04 00:55:34;;;;;;;6.82;6.00;;;;;;;2.54;93.07;99899.94;4988754;28;20113;-76
2021/12/04 00:58:03;;;;;;;10.13;5.78;;;;;;;2.55;93.13;99901.69;4974402;28;20352;-76
2021/12/04 01:01:01;;;;;;;9.95;6.05;;;;;;;2.56;92.97;99895.66;4986016;28;20577;-76
2021/12/04 01:03:27;;;;;;;7.50;5.68;;;;;;;2.56;92.81;99900.81;4965202;28;20042;-77
2021/12/04 01:05:53;;;;;;;6.05;5.07;;;;;;;2.58;92.85;99901.69;4990633;28;20066;-76
2021/12/04 01:08:18;;;;;;;7.28;6.40;;;;;;;2.60;92.66;99912.88;4966790;28;20505;-76
2021/12/04 01:11:05;;;;;;;7.60;6.05;;;;;;;2.60;92.83;99906.03;4985961;28;20104;-76
2021/12/04 01:16:28;;;;;;;8.45;5.13;;;;;;;2.61;93.10;99904.28;4989809;28;20038;-77
2021/12/04 01:18:54;;;;;;;5.22;4.75;;;;;;;2.60;92.55;99900.84;4988492;28;20042;-77
2021/12/04 01:21:19;;;;;;;8.38;6.70;;;;;;;2.62;93.03;99908.63;4990233;28;20402;-76
2021/12/04 01:23:47;;;;;;;7.90;6.50;;;;;;;2.63;92.58;99904.28;4968450;28;20034;-77
2021/12/04 01:26:14;;;;;;;6.03;5.03;;;;;;;2.64;93.14;99906.03;4990738;28;20057;-77
2021/12/04 01:28:40;;;;;;;5.68;5.13;;;;;;;2.65;93.21;99908.63;4958598;28;20030;-77
2021/12/04 01:31:05;;;;;;;7.22;5.05;;;;;;;2.66;93.00;99904.31;4974073;28;20121;-77
2021/12/04 01:33:31;;;;;;;8.23;5.75;;;;;;;2.69;92.41;99915.53;4951581;28;20045;-77
2021/12/04 01:35:56;;;;;;;5.97;5.38;;;;;;;2.69;92.85;99912.09;4955710;28;20062;-77
2021/12/04 01:38:22;;;;;;;6.13;5.53;;;;;;;2.69;92.25;99900.03;4973828;28;20029;-77
2021/12/04 01:40:48;;;;;;;6.30;5.70;;;;;;;2.68;92.71;99882.75;4970944;28;20038;-77
2021/12/04 01:43:14;;;;;;;7.35;5.35;;;;;;;2.70;92.88;99885.34;4956717;28;20027;-77
2021/12/04 01:45:41;;;;;;;5.68;5.18;;;;;;;2.69;92.91;99886.25;4971700;28;20038;-76
2021/12/04 01:48:07;;;;;;;5.18;4.68;;;;;;;2.71;92.81;99892.28;5005744;28;20505;-77
2021/12/04 01:50:34;;;;;;;6.10;5.40;;;;;;;2.71;92.88;99887.94;4992507;28;20068;-77
2021/12/04 01:53:23;;;;;;;6.15;5.55;;;;;;;2.74;92.69;99887.09;5011342;28;20025;-77
2021/12/04 01:55:51;;;;;;;8.85;6.63;;;;;;;2.71;92.83;99877.59;5012722;28;20489;-76
2021/12/04 01:58:16;;;;;;;7.03;5.70;;;;;;;2.74;92.72;99879.34;4993114;28;20095;-76
2021/12/04 02:01:08;;;;;;;7.85;6.68;;;;;;;2.73;92.83;99881.09;4978760;28;20025;-77
2021/12/04 02:03:36;;;;;;;7.82;6.43;;;;;;;2.75;92.54;99879.34;5025031;28;20021;-76
2021/12/04 02:06:02;;;;;;;8.70;7.32;;;;;;;2.78;92.92;99883.69;4991001;28;20041;-76
2021/12/04 02:08:28;;;;;;;9.10;6.72;;;;;;;2.78;92.79;99881.09;4995841;28;20421;-77
2021/12/04 02:11:31;;;;;;;6.43;5.57;;;;;;;2.78;92.71;99876.78;4992616;28;20033;-78
2021/12/04 02:14:27;;;;;;;6.97;6.28;;;;;;;2.80;92.71;99876.78;5012903;28;20112;-76
2021/12/04 02:16:53;;;;;;;13.90;7.65;;;;;;;2.78;91.93;99861.25;5010902;28;20440;-76
2021/12/04 02:19:25;;;;;;;7.70;5.80;;;;;;;2.80;92.17;99855.22;5008523;28;20030;-76
2021/12/04 02:21:51;;;;;;;13.25;9.68;;;;;;;2.83;92.39;99857.81;5010879;28;20091;-77
2021/12/04 02:24:19;;;;;;;41.38;21.92;;;;;;;2.80;92.06;99842.28;4988588;28;20021;-74
2021/12/04 02:26:49;;;;;;;14.77;7.10;;;;;;;2.81;91.98;99836.25;5007185;28;20127;-76
2021/12/04 02:29:15;;;;;;;29.03;16.70;;;;;;;2.80;92.41;99830.19;4970745;28;20034;-75
2021/12/04 02:31:55;;;;;;;10.82;7.95;;;;;;;2.79;92.47;99823.31;5012898;28;20033;-77
2021/12/04 02:34:23;;;;;;;14.75;9.52;;;;;;;2.77;92.23;99820.72;5001536;28;20073;-75
2021/12/04 02:36:48;;;;;;;57.22;28.10;;;;;;;2.80;92.26;99825.03;5029254;28;20025;-74
2021/12/04 02:39:27;;;;;;;7.45;5.30;;;;;;;2.79;92.57;99818.16;5012589;28;20425;-75
2021/12/04 02:41:58;;;;;;;21.00;12.10;;;;;;;2.78;91.63;99817.25;5027663;28;20033;-77
2021/12/04 02:44:31;;;;;;;;;;;;;;;2.82;91.70;99812.97;5022183;28;20113;-76
2021/12/04 02:46:56;;;;;;;10.40;6.72;;;;;;;2.80;92.20;99803.47;5011643;28;19912;-73
2021/12/04 02:49:22;;;;;;;12.38;8.30;;;;;;;2.80;92.43;99809.50;4972540;28;20104;-72
2021/12/04 02:51:47;;;;;;;74.95;34.45;;;;;;;2.80;92.01;99795.72;4979112;28;20026;-75
2021/12/04 02:54:13;;;;;;;44.53;22.80;;;;;;;2.82;91.84;99806.94;4996794;28;20033;-76
2021/12/04 02:56:44;;;;;;;20.90;14.05;;;;;;;2.80;92.57;99796.56;5011024;28;20520;-76
2021/12/04 02:59:09;;;;;;;;;;;;;;;2.82;91.79;99796.59;5012781;28;20051;-75
2021/12/04 03:01:37;;;;;;;5.78;5.18;;;;;;;2.82;92.41;99799.19;4992323;28;20389;-75
2021/12/04 03:04:11;;;;;;;7.88;5.68;;;;;;;2.81;91.75;99805.22;4999877;28;20117;-82
2021/12/04 03:06:42;;;;;;;6.55;5.10;;;;;;;2.79;92.47;99807.81;5008724;28;20028;-77
2021/12/04 03:09:08;;;;;;;7.28;5.78;;;;;;;2.82;92.13;99804.38;5016039;28;20026;-76
2021/12/04 03:11:33;;;;;;;7.25;5.43;;;;;;;2.81;92.14;99797.44;4979986;28;20116;-79
2021/12/04 03:14:01;;;;;;;6.40;4.60;;;;;;;2.82;92.47;99802.63;4980643;28;20034;-77
2021/12/04 03:16:27;;;;;;;17.35;11.48;;;;;;;2.80;91.93;99796.56;4998117;28;20036;-76
2021/12/04 03:18:53;;;;;;;7.60;4.65;;;;;;;2.80;92.03;99787.97;5016390;28;20025;-77
2021/12/04 03:21:28;;;;;;;5.40;4.68;;;;;;;2.79;92.58;99784.50;5015008;28;20109;-77
2021/12/04 03:23:59;;;;;;;22.85;10.05;;;;;;;2.78;92.43;99775.88;4957634;28;20093;-76
2021/12/04 03:26:26;;;;;;;6.05;4.90;;;;;;;2.78;91.92;99775.00;4938171;28;20039;-75
2021/12/04 03:28:53;;;;;;;7.85;5.10;;;;;;;2.77;91.88;99779.34;4964248;28;20060;-77
2021/12/04 03:40:09;;;;;;;23.02;13.07;;;;;;;2.77;91.54;99766.41;4969757;28;20045;-76
2021/12/04 03:42:11;;;;;;;5.50;4.55;;;;;;;2.76;91.66;99767.25;4954653;28;20125;-76
2021/12/04 03:44:37;;;;;;;8.35;4.70;;;;;;;2.76;91.65;99766.41;4936737;29;20058;-76
2021/12/04 03:47:03;;;;;;;6.30;4.35;;;;;;;2.74;92.10;99758.63;4957804;28;20031;-76
2021/12/04 03:49:31;;;;;;;4.93;4.25;;;;;;;2.74;91.99;99757.75;4953102;28;20047;-75
2021/12/04 03:51:57;;;;;;;4.22;3.65;;;;;;;2.73;92.18;99754.31;4952772;28;20614;-76
2021/12/04 03:54:22;;;;;;;9.20;4.15;;;;;;;2.76;92.33;99763.81;4960221;28;20038;-76
2021/12/04 03:56:50;;;;;;;5.45;4.00;;;;;;;2.75;91.93;99756.91;4946299;28;20038;-81
2021/12/04 03:59:16;;;;;;;23.17;13.68;;;;;;;2.74;92.02;99743.13;4955350;28;20043;-82
2021/12/04 04:01:42;;;;;;;4.82;3.95;;;;;;;2.73;91.78;99743.97;4956554;28;20050;-79
2021/12/04 04:04:07;;;;;;;36.97;21.17;;;;;;;2.73;92.54;99736.19;4941755;28;20031;-79
2021/12/04 04:06:33;;;;;;;6.57;5.18;;;;;;;2.73;91.93;99740.50;4935454;28;20152;-79
2021/12/04 04:09:04;;;;;;;50.70;26.40;;;;;;;2.73;91.90;99741.38;4954015;29;20031;-79
2021/12/04 04:11:49;;;;;;;3.47;3.17;;;;;;;2.72;92.35;99747.41;4927959;28;20062;-79
2021/12/04 04:14:15;;;;;;;5.32;4.03;;;;;;;2.73;92.11;99741.38;4950991;28;20518;-78
2021/12/04 04:16:41;;;;;;;34.42;17.80;;;;;;;2.73;92.09;99733.63;4931076;28;20062;-78
2021/12/04 04:19:22;;;;;;;5.93;4.70;;;;;;;2.74;91.81;99740.53;4938983;28;20125;-79
2021/12/04 04:21:57;;;;;;;7.32;6.28;;;;;;;2.75;92.40;99738.78;5006553;28;20049;-76
2021/12/04 04:24:29;;;;;;;3.67;3.13;;;;;;;2.73;91.59;99730.16;5000976;28;20494;-81
2021/12/04 04:26:55;;;;;;;;;;;;;;;2.79;91.61;99730.19;5001649;28;20382;-79
2021/12/04 04:29:24;;;;;;;4.82;3.35;;;;;;;2.74;91.92;99722.41;5008169;28;19913;-81
2021/12/04 04:31:50;;;;;;;43.70;23.90;;;;;;;2.75;92.19;99718.09;4979853;28;20107;-79
2021/12/04 04:34:36;;;;;;;4.07;3.65;;;;;;;2.73;91.76;99719.78;4992035;28;20474;-80
2021/12/04 04:37:14;;;;;;;4.47;3.08;;;;;;;2.72;92.17;99731.88;5000597;28;20490;-82
2021/12/04 04:59:28;;;;;;;8.07;4.65;;;;;;;2.72;92.40;99718.94;5016986;28;20134;-74
2021/12/04 05:12:50;;;;;;;8.75;5.78;;;;;;;2.73;92.38;99718.09;5016890;28;20527;-74
2021/12/04 05:15:35;;;;;;;13.60;7.28;;;;;;;2.73;92.71;99714.63;4976298;28;20045;-75
2021/12/04 05:18:32;;;;;;;29.23;18.50;;;;;;;2.73;92.43;99710.34;5013610;28;20051;-75
2021/12/04 05:21:03;;;;;;;22.00;14.88;;;;;;;2.73;92.47;99710.34;5012300;28;20456;-73
2021/12/04 05:26:29;;;;;;;11.63;7.15;;;;;;;2.74;92.34;99691.38;5028402;28;20040;-73
2021/12/04 05:28:58;;;;;;;25.63;17.48;;;;;;;2.73;92.56;99683.56;4979253;28;20049;-73
2021/12/04 05:31:27;;;;;;;22.55;14.63;;;;;;;2.73;92.60;99686.16;5010088;28;20492;-73
2021/12/04 05:33:53;;;;;;;4.93;4.50;;;;;;;2.73;92.52;99693.94;5010725;28;20136;-74
2021/12/04 05:36:31;;;;;;;42.78;23.90;;;;;;;2.72;92.64;99682.72;5012757;28;20159;-73
2021/12/04 05:38:56;;;;;;;13.15;7.25;;;;;;;2.73;92.59;99693.94;5006981;28;20072;-74
2021/12/04 05:41:22;;;;;;;15.52;8.55;;;;;;;2.75;92.36;99692.22;4969930;28;20045;-74
2021/12/04 05:43:48;;;;;;;35.45;20.20;;;;;;;2.75;93.07;99684.47;5008760;28;20072;-74
2021/12/04 05:46:19;;;;;;;23.45;15.50;;;;;;;2.73;92.93;99681.00;4989123;28;20113;-76
2021/12/04 05:56:32;;;;;;;27.17;16.30;;;;;;;2.77;92.38;99690.50;5003534;28;20224;-74
2021/12/04 05:58:59;;;;;;;59.97;31.45;;;;;;;2.78;92.27;99681.88;5004090;28;20129;-74
2021/12/04 06:01:25;;;;;;;58.40;26.10;;;;;;;2.80;92.66;99677.56;4993380;28;20050;-75
2021/12/04 06:03:51;;;;;;;76.70;39.35;;;;;;;2.79;92.94;99678.44;5014308;28;20037;-74
2021/12/04 06:06:17;;;;;;;82.80;42.97;;;;;;;2.78;91.95;99680.13;5010893;28;20032;-74
2021/12/04 06:08:43;;;;;;;32.95;17.02;;;;;;;2.80;92.35;99681.88;5011860;28;20414;-74
2021/12/04 06:11:10;;;;;;;33.70;14.77;;;;;;;2.80;92.77;99680.13;4983596;28;20038;-76
2021/12/04 06:13:37;;;;;;;49.45;27.73;;;;;;;2.80;92.14;99676.69;4976924;28;20037;-75
2021/12/04 06:16:02;;;;;;;38.40;21.58;;;;;;;2.81;92.23;99671.53;5010960;28;20029;-76
2021/12/04 06:18:28;;;;;;;17.33;11.77;;;;;;;2.82;92.73;99672.41;5002684;28;20032;-75
2021/12/04 06:23:45;;;;;;;13.15;7.18;;;;;;;2.84;92.67;99666.34;4992724;28;20095;-75
2021/12/04 06:26:12;;;;;;;12.95;8.68;;;;;;;2.86;92.66;99666.34;4968031;28;20058;-75
2021/12/04 06:28:37;;;;;;;9.10;7.38;;;;;;;2.86;92.54;99676.69;4934797;28;20050;-76
2021/12/04 06:31:08;;;;;;;16.33;10.20;;;;;;;2.86;92.23;99677.59;4972900;28;20027;-74
2021/12/04 06:33:35;;;;;;;17.83;13.02;;;;;;;2.86;92.10;99676.69;4966938;28;20061;-75
2021/12/04 06:36:00;;;;;;;22.35;15.00;;;;;;;2.84;92.45;99665.50;4980359;28;20042;-76
2021/12/04 06:38:26;;;;;;;7.07;5.38;;;;;;;2.85;92.18;99670.66;4982540;28;20049;-75
2021/12/04 06:40:52;;;;;;;8.80;6.50;;;;;;;2.86;92.41;99679.28;4952751;28;20093;-75
2021/12/04 06:43:18;;;;;;;9.40;7.45;;;;;;;2.86;92.56;99666.34;4950903;28;20051;-76
2021/12/04 06:45:48;;;;;;;17.27;15.43;;;;;;;2.88;92.48;99672.41;4945952;28;20129;-75
2021/12/04 06:48:22;;;;;;;57.42;35.95;;;;;;;2.87;92.54;99665.50;4943289;28;20098;-75
2021/12/04 06:50:52;;;;;;;92.53;60.75;;;;;;;2.86;92.09;99664.66;4948307;28;20050;-75
2021/12/04 06:56:06;;;;;;;143.43;99.32;;;;;;;2.88;92.47;99672.41;4950217;28;20486;-74
2021/12/04 06:58:31;;;;;;;158.23;121.05;;;;;;;2.88;92.42;99672.41;4951564;28;20197;-74
2021/12/04 07:00:57;;;;;;;75.35;60.55;;;;;;;2.89;92.04;99675.00;4960169;28;20042;-76
2021/12/04 07:03:22;;;;;;;12.20;10.18;;;;;;;2.91;92.51;99677.56;4940397;28;20118;-75
2021/12/04 07:05:48;;;;;;;31.90;18.15;;;;;;;2.91;92.08;99668.06;4945515;28;20030;-75
2021/12/04 07:08:17;;;;;;;66.13;37.17;;;;;;;2.91;92.14;99675.00;4923626;28;20151;-75
2021/12/04 07:10:42;;;;;;;31.05;20.17;;;;;;;2.92;92.58;99672.41;4966620;28;20027;-74
2021/12/04 07:13:12;;;;;;;30.13;18.30;;;;;;;2.93;92.63;99675.84;4979529;28;20551;-74
2021/12/04 07:15:41;;;;;;;24.33;15.35;;;;;;;2.93;92.38;99671.53;4988907;28;20034;-74
2021/12/04 07:18:06;;;;;;;438.50;281.95;;;;;;;2.92;92.50;99663.78;4987975;28;20044;-75
2021/12/04 07:20:32;;;;;;;283.40;156.65;;;;;;;2.94;92.34;99673.28;4998851;28;20037;-74
2021/12/04 07:22:59;;;;;;;21.33;14.05;;;;;;;2.93;92.42;99676.72;4983624;28;20095;-74
2021/12/04 07:25:25;;;;;;;20.40;11.10;;;;;;;2.94;92.31;99672.41;4984354;28;20064;-74
2021/12/04 07:27:55;;;;;;;124.00;70.80;;;;;;;2.93;92.56;99674.13;5014770;28;20060;-74
2021/12/04 07:30:23;;;;;;;10.63;8.40;;;;;;;2.94;92.80;99675.88;4999398;28;20033;-75
2021/12/04 07:32:50;;;;;;;9.68;6.97;;;;;;;2.93;92.79;99668.97;5014787;28;20052;-74
2021/12/04 07:35:16;;;;;;;71.53;39.97;;;;;;;2.95;92.83;99663.78;5006014;28;20076;-74
2021/12/04 07:37:42;;;;;;;43.83;28.30;;;;;;;2.93;93.04;99668.97;4998355;28;20068;-76
2021/12/04 07:40:09;;;;;;;28.35;20.92;;;;;;;2.94;92.05;99662.94;4999658;28;20095;-72
2021/12/04 07:42:35;;;;;;;49.50;32.90;;;;;;;2.95;92.18;99664.63;4999752;28;20037;-75
2021/12/04 07:45:00;;;;;;;27.45;18.33;;;;;;;2.95;92.94;99662.03;5031105;28;20474;-74
2021/12/04 07:47:26;;;;;;;12.20;9.82;;;;;;;2.97;92.70;99662.03;4973483;28;20439;-74
2021/12/04 07:49:53;;;;;;;18.52;13.32;;;;;;;2.98;92.37;99662.94;5013805;28;20049;-75
2021/12/04 07:52:19;;;;;;;23.90;15.68;;;;;;;3.02;93.06;99660.34;4995352;28;20030;-74
2021/12/04 07:54:44;;;;;;;70.07;39.22;;;;;;;3.01;92.92;99653.41;4986164;28;20124;-74
2021/12/04 07:57:10;;;;;;;24.73;14.20;;;;;;;3.01;92.29;99653.41;4969703;28;20036;-75
2021/12/04 07:59:35;;;;;;;47.10;28.70;;;;;;;3.03;92.12;99651.72;4982777;28;20061;-75
2021/12/04 08:02:01;;;;;;;52.47;32.67;;;;;;;3.03;92.46;99649.13;4979750;28;20053;-75
2021/12/04 08:04:26;;;;;;;26.67;19.23;;;;;;;3.04;92.06;99648.25;4981537;28;20398;-76
2021/12/04 08:06:53;;;;;;;15.50;13.00;;;;;;;3.07;92.55;99648.22;4978230;28;20486;-75
2021/12/04 08:09:19;;;;;;;18.70;13.05;;;;;;;3.06;91.94;99645.66;5002509;28;20029;-74
2021/12/04 08:11:46;;;;;;;7.22;6.53;;;;;;;3.06;92.42;99653.41;5009555;28;20033;-74
2021/12/04 08:14:12;;;;;;;7.25;6.50;;;;;;;3.09;92.15;99648.25;4994272;28;20487;-74
2021/12/04 08:16:38;;;;;;;10.20;9.20;;;;;;;3.10;92.54;99656.03;4998149;28;20025;-74
2021/12/04 08:19:04;;;;;;;8.75;7.80;;;;;;;3.10;91.82;99650.84;4994898;28;20038;-75
2021/12/04 08:21:30;;;;;;;6.80;6.03;;;;;;;3.11;92.00;99655.13;4988139;28;20084;-75
2021/12/04 08:23:55;;;;;;;9.40;7.57;;;;;;;3.13;91.72;99644.78;5005623;28;20091;-74
2021/12/04 08:26:21;;;;;;;17.92;15.48;;;;;;;3.15;91.48;99634.44;4992763;28;20030;-75
2021/12/04 08:28:48;;;;;;;18.58;11.65;;;;;;;3.14;92.55;99625.81;5009568;28;20111;-75
2021/12/04 08:31:13;;;;;;;19.08;16.60;;;;;;;3.15;91.53;99624.94;5010210;28;20052;-75
2021/12/04 08:33:47;;;;;;;14.25;12.85;;;;;;;3.15;92.19;99619.78;5026137;28;20033;-75
2021/12/04 08:36:16;;;;;;;8.85;6.22;;;;;;;3.18;92.02;99621.50;5006848;28;20486;-75
2021/12/04 08:38:46;;;;;;;23.80;19.60;;;;;;;3.17;91.66;99620.63;4978230;28;20513;-74
2021/12/04 08:41:20;;;;;;;18.87;15.17;;;;;;;3.18;91.47;99609.41;4977630;28;20034;-75
2021/12/04 08:43:53;;;;;;;25.83;16.00;;;;;;;3.20;91.92;99612.00;5008166;28;20308;-77
2021/12/04 08:46:20;;;;;;;13.90;11.18;;;;;;;3.21;92.09;99604.22;5010932;28;20039;-82
2021/12/04 08:48:50;;;;;;;9.82;7.10;;;;;;;3.23;91.98;99596.44;4925487;28;1328632;-82
2021/12/04 08:51:18;;;;;;;8.85;8.00;;;;;;;3.25;91.87;99594.75;4990046;28;20121;-81
2021/12/04 08:53:46;;;;;;;8.85;5.35;;;;;;;3.24;91.63;99593.00;5002555;28;20129;-82
2021/12/04 08:56:11;;;;;;;6.30;5.70;;;;;;;3.25;91.88;99580.06;5006546;28;20044;-82
2021/12/04 08:58:39;;;;;;;8.57;4.90;;;;;;;3.28;91.44;99579.19;4994767;28;20037;-87
2021/12/04 09:01:11;;;;;;;9.65;5.25;;;;;;;3.27;91.43;99587.81;4979682;28;20398;-88
2021/12/04 09:03:41;;;;;;;5.35;4.57;;;;;;;3.29;90.80;99579.19;5024497;28;20082;-89
2021/12/04 09:06:07;;;;;;;5.05;4.55;;;;;;;3.32;91.55;99573.16;5009386;28;20125;-85
2021/12/04 09:08:36;;;;;;;8.23;5.78;;;;;;;3.34;90.89;99573.13;5006889;28;20474;-82
2021/12/04 09:11:12;;;;;;;8.82;5.65;;;;;;;3.39;91.30;99580.03;5012345;28;20025;-84
2021/12/04 09:13:39;;;;;;;7.07;5.65;;;;;;;3.43;90.72;99578.28;5005137;28;20029;-85
2021/12/04 09:16:06;;;;;;;6.50;5.22;;;;;;;3.47;91.29;99590.34;5015531;28;20026;-86
2021/12/04 09:18:31;;;;;;;9.77;5.55;;;;;;;3.51;90.83;99596.41;5015082;28;20084;-80
2021/12/04 09:20:57;;;;;;;5.53;5.03;;;;;;;3.51;90.14;99588.63;5014699;28;20073;-87
2021/12/04 09:23:31;;;;;;;6.32;5.72;;;;;;;3.54;90.43;99580.84;5014125;28;20030;-87
2021/12/04 09:26:02;;;;;;;6.75;5.40;;;;;;;3.59;90.62;99573.91;5012284;28;20474;-87
2021/12/04 10:17:07;;;;;;;8.88;7.97;;;;;;;3.69;89.60;99538.47;5031355;28;20382;-86
2021/12/04 10:19:41;;;;;;;8.10;7.30;;;;;;;3.70;89.36;99546.22;5026495;28;20056;-85
2021/12/04 10:22:34;;;;;;;8.45;7.57;;;;;;;3.69;90.10;99543.66;5011820;28;20124;-82
2021/12/04 10:33:36;;;;;;;9.43;8.43;;;;;;;3.70;89.85;99520.31;5018911;28;20053;-83
2021/12/04 10:36:03;;;;;;;10.55;8.20;;;;;;;3.70;90.07;99509.97;4994920;28;20033;-83
2021/12/04 10:38:36;;;;;;;10.27;8.25;;;;;;;3.71;90.38;99511.69;5028712;28;20037;-70
2021/12/04 10:41:02;;;;;;;10.07;8.23;;;;;;;3.73;90.15;99515.13;5011391;28;20512;-71
2021/12/04 10:43:30;;;;;;;11.57;8.88;;;;;;;3.76;89.87;99507.31;4980644;28;20116;-70
2021/12/04 10:46:04;;;;;;;10.60;9.35;;;;;;;3.79;90.48;99498.69;5013199;28;20041;-70
2021/12/04 10:48:32;;;;;;;9.32;8.43;;;;;;;3.80;90.19;99496.06;4990027;28;20054;-70
2021/12/04 10:51:46;;;;;;;17.23;15.60;;;;;;;3.85;90.01;99493.47;4982073;28;20374;-71
2021/12/04 10:53:51;;;;;;;9.80;8.40;;;;;;;3.87;90.62;99496.06;5002890;28;20052;-71
2021/12/04 10:57:01;;;;;;;15.60;9.93;;;;;;;3.86;89.50;99479.63;5008644;28;20042;-70
2021/12/04 10:59:46;;;;;;;9.32;8.40;;;;;;;3.88;90.46;99477.03;5008875;28;20125;-70
2021/12/04 11:02:20;;;;;;;12.20;10.05;;;;;;;3.85;90.66;99477.06;4989756;28;20057;-70
2021/12/04 11:18:46;;;;;;;10.45;9.45;;;;;;;3.94;90.13;99430.34;5011099;28;20053;-70
2021/12/04 11:24:34;;;;;;;12.30;11.00;;;;;;;3.98;90.48;99421.69;4992057;28;20034;-70
2021/12/04 11:43:12;;;;;;;12.98;11.63;;;;;;;4.04;89.78;99418.16;5013204;28;20044;-70
2021/12/04 11:46:18;;;;;;;11.55;10.35;;;;;;;4.05;90.01;99409.53;5002297;28;20511;-70
2021/12/04 11:48:46;;;;;;;11.50;10.27;;;;;;;4.07;89.86;99412.97;5021949;28;20037;-70
2021/12/04 11:51:22;;;;;;;10.98;9.88;;;;;;;4.07;89.96;99408.66;4992446;28;20034;-70
2021/12/04 11:53:49;;;;;;;20.95;9.63;;;;;;;4.06;90.15;99396.53;4996852;28;20038;-70
2021/12/04 11:56:25;;;;;;;9.70;8.80;;;;;;;4.09;89.94;99399.09;4979216;28;20041;-70
2021/12/04 11:58:55;;;;;;;11.57;10.23;;;;;;;4.09;89.86;99399.09;5015949;28;20040;-70
2021/12/04 12:01:24;;;;;;;13.05;10.13;;;;;;;4.11;89.90;99394.78;4987608;28;20030;-70
2021/12/04 12:03:53;;;;;;;14.63;10.13;;;;;;;4.10;89.66;99390.47;5014254;28;20458;-70
2021/12/04 12:06:29;;;;;;;12.43;11.13;;;;;;;4.13;90.00;99395.63;5014996;28;20462;-70
2021/12/04 12:09:12;;;;;;;13.60;10.25;;;;;;;4.15;90.31;99383.53;5014975;28;20462;-70
2021/12/04 12:11:52;;;;;;;10.65;9.55;;;;;;;4.19;90.20;99384.34;5013895;28;20025;-70
2021/12/04 12:14:22;;;;;;;11.32;9.77;;;;;;;4.18;89.53;99376.56;5013450;28;20091;-70
2021/12/04 12:16:51;;;;;;;15.43;11.60;;;;;;;4.18;89.57;99379.16;5015705;28;20456;-70
2021/12/04 12:19:28;;;;;;;10.90;9.50;;;;;;;4.19;89.78;99373.13;5006475;28;20366;-70
2021/12/04 12:22:01;;;;;;;12.73;10.10;;;;;;;4.17;89.92;99375.72;5009600;28;20045;-70
2021/12/04 12:38:17;;;;;;;10.55;9.52;;;;;;;4.10;90.26;99364.53;5031709;28;20106;-75
2021/12/04 12:41:04;;;;;;;12.55;9.95;;;;;;;4.12;90.68;99373.19;5010477;28;20036;-74
2021/12/04 12:43:41;;;;;;;12.82;9.38;;;;;;;4.08;90.83;99355.94;5014187;28;20025;-74
2021/12/04 12:46:07;;;;;;;10.82;9.73;;;;;;;4.06;91.11;99357.66;5011253;28;20025;-73
2021/12/04 12:49:03;;;;;;;11.07;9.93;;;;;;;4.06;91.30;99354.22;5010946;28;20030;-74
2021/12/04 12:51:33;;;;;;;11.88;8.68;;;;;;;4.03;91.44;99357.69;4994286;28;20079;-74
2021/12/04 12:54:02;;;;;;;9.48;8.68;;;;;;;4.04;91.81;99362.00;5021959;28;20033;-69
2021/12/04 12:56:37;;;;;;;12.27;8.52;;;;;;;4.02;92.01;99365.50;5017458;28;20106;-80
2021/12/04 12:59:36;;;;;;;11.63;9.80;;;;;;;4.03;91.61;99367.22;5011117;28;20036;-80
2021/12/04 13:13:38;;;;;;;10.00;7.80;;;;;;;4.09;91.49;99368.00;5033417;28;20036;-85
2021/12/04 13:16:28;;;;;;;9.98;7.85;;;;;;;4.09;91.83;99364.56;5016082;28;20037;-85
2021/12/04 13:19:32;;;;;;;8.23;7.43;;;;;;;4.09;92.21;99362.81;5015385;28;20013;-85
2021/12/04 13:22:02;;;;;;;7.60;6.80;;;;;;;4.08;91.96;99361.13;4996020;28;20493;-84
2021/12/04 13:24:34;;;;;;;8.13;7.32;;;;;;;4.09;92.21;99361.97;4996392;28;20029;-84
2021/12/04 13:30:15;;;;;;;7.05;6.25;;;;;;;4.10;92.30;99358.50;5013899;28;20028;-84
2021/12/04 13:32:46;;;;;;;6.90;6.10;;;;;;;4.09;92.07;99357.63;4996053;28;20022;-85
2021/12/04 13:35:15;;;;;;;8.00;6.78;;;;;;;4.10;92.86;99349.00;4997726;28;20021;-85
2021/12/04 13:37:42;;;;;;;7.15;6.45;;;;;;;4.11;92.23;99348.13;5015567;28;20083;-86
2021/12/04 13:40:12;;;;;;;6.55;5.95;;;;;;;4.13;92.79;99337.75;5013992;28;20029;-86
2021/12/04 13:42:38;;;;;;;8.18;6.45;;;;;;;4.15;92.40;99342.03;5013235;28;20498;-84
2021/12/04 13:45:07;;;;;;;7.65;6.78;;;;;;;4.18;92.26;99354.13;5015071;28;20025;-86
2021/12/04 13:47:32;;;;;;;7.68;6.75;;;;;;;4.19;92.13;99345.44;5014900;28;20033;-86
2021/12/04 13:50:01;;;;;;;8.25;7.43;;;;;;;4.22;92.45;99342.81;4983534;28;20111;-85
2021/12/04 13:52:31;;;;;;;8.00;7.18;;;;;;;4.24;92.42;99345.41;5015547;28;20029;-83
2021/12/04 13:55:05;;;;;;;8.50;7.10;;;;;;;4.26;92.31;99351.44;5015101;28;20079;-84
2021/12/04 13:57:30;;;;;;;11.50;8.30;;;;;;;4.29;92.09;99354.00;5014505;28;20026;-84
2021/12/04 14:00:00;;;;;;;10.15;8.88;;;;;;;4.30;92.39;99356.56;5015138;28;20102;-85
2021/12/04 14:02:30;;;;;;;12.57;10.10;;;;;;;4.33;91.80;99353.09;4995088;28;20100;-83
2021/12/04 14:05:18;;;;;;;11.50;9.77;;;;;;;4.35;91.95;99348.75;4995277;28;20032;-84
2021/12/04 14:07:52;;;;;;;10.45;9.23;;;;;;;4.36;91.95;99345.28;5005694;28;20064;-84
2021/12/04 14:13:40;;;;;;;12.10;10.07;;;;;;;4.38;91.91;99348.69;5032885;28;20045;-83
2021/12/04 14:16:45;;;;;;;10.98;9.48;;;;;;;4.40;92.06;99346.97;4982487;28;20124;-84
2021/12/04 14:22:33;;;;;;;12.10;10.77;;;;;;;4.42;91.57;99345.22;5023274;28;20087;-82
2021/12/04 14:25:02;;;;;;;14.55;11.18;;;;;;;4.43;92.05;99341.75;4994606;28;20442;-83
2021/12/04 14:27:34;;;;;;;17.13;11.35;;;;;;;4.47;92.15;99347.78;5014180;28;20115;-84
2021/12/04 14:30:05;;;;;;;13.18;10.68;;;;;;;4.47;91.86;99352.97;5015053;28;20373;-84
2021/12/04 14:32:32;;;;;;;16.38;11.80;;;;;;;4.48;91.92;99350.34;5011468;28;20026;-83
2021/12/04 14:35:00;;;;;;;17.33;11.65;;;;;;;4.51;91.95;99360.69;5014101;28;20377;-85
2021/12/04 14:37:26;;;;;;;15.25;11.77;;;;;;;4.51;91.81;99363.28;5005707;28;20052;-85
2021/12/04 14:40:30;;;;;;;14.50;11.65;;;;;;;4.54;91.68;99366.72;5004399;28;20113;-80
2021/12/04 14:42:55;;;;;;;12.93;10.65;;;;;;;4.54;91.55;99365.00;4996134;28;20038;-77
2021/12/04 14:45:28;;;;;;;13.20;11.27;;;;;;;4.51;91.71;99362.41;4980930;28;20045;-75
2021/12/04 14:48:01;;;;;;;14.63;11.38;;;;;;;4.51;91.81;99372.78;5012928;28;20033;-80
2021/12/04 14:50:27;;;;;;;11.43;10.27;;;;;;;4.50;91.86;99373.69;5012030;28;20058;-79
2021/12/04 14:52:56;;;;;;;16.30;10.75;;;;;;;4.49;91.89;99371.94;4980219;28;20037;-79
2021/12/04 14:55:36;;;;;;;14.32;10.35;;;;;;;4.51;91.84;99389.22;5003083;28;20042;-79
2021/12/04 14:58:07;;;;;;;13.30;10.73;;;;;;;4.50;91.80;99397.03;5000017;28;20366;-79
2021/12/04 15:00:39;;;;;;;12.02;9.32;;;;;;;4.48;91.70;99398.75;4991018;28;20037;-77
2021/12/04 15:03:11;;;;;;;10.77;9.60;;;;;;;4.45;91.56;99397.06;5006601;28;20069;-76
2021/12/04 15:05:46;;;;;;;11.32;9.18;;;;;;;4.46;91.59;99409.16;5007808;28;20045;-76